OIAH  Gachsaran  Airport

Gachsaran, Iran

Add Bookmark
ICAO OIAH
Type Airport
Status Operational
Latitude
30° 20' 15" N
30.337601
Longitude
50° 49' 40" E
50.827999
Local (GMT +4.5 ) UTC
Jul 29, 2016 02:38 pm Jul 29, 2016 10:08
Sunrise-Sunset Local UTC
Begin Civil Twilight 05:56 am 01:26
Sunrise 06:22 am 01:52
Sunset 08:03 pm 15:33
End Civil Twilight 08:30 pm 16:00
VFR
VFR
MVFR
MVFR
IFR
IFR
LIFR
LIFR
Unknown
Unavailable

Current Weather

METAR Observed MVFR
OIAH 290900Z 00000KT 5000 DU FEW040 38/18 Q1006 Fri, Jul 29, 2016 @ 09:00 UTC
(1 Hour, 8 Minutes ago)
Marginal Visual Flight Rules
Wind Visibility Clouds Conditions
Calm 5,005 m
  • Few at 4,000 ft AGL
  • Dust
Temperatures Readings Precipitation
Current Temp
38°C
100°F
Dewpoint
18°C
64°F
Humidity 31%
Altimeter 29.7" Hg
Sea Level Pressure 1,006 mb
Field Elevation
738 m
2,421 ft
None Recorded

Additional weather within a 92.6km radius of OIAH

Map ICAO Location
OISY 79.6km E/NE (059°)
VFR
VFR
MVFR
MVFR
IFR
IFR
LIFR
LIFR
Unknown
Unavailable
-
-

CheckWX.com is intended as a tool to help pilots better visualize weather data. It is not intended as a substitute for an official weather briefing obtained from a Flight Service Station. CheckWX.com does not meet the FAA requirements for an official pre-flight weather briefing. Therefore, it's important that pilots still call and obtain an official FSS pre-flight weather briefing.

© 2007-2016 CheckWX.com
10:08:36 UTC